Terminal Aerodrome Forecast
Issued by NWS Twin Cities, MN

Home | Current Version | Previous Version | Graphics & Text | Print | Product List | Glossary On
Versions: 1 2 3 4 5 6 7 8 9 10 11 12 13 14 15 16
351
FTUS43 KMPX 240554 CCA
TAFEAU
TAF COR
KEAU 240554Z 2406/2506 04012G20KT 1 1/2SM -SN BR OVC020
     FM240700 03014G24KT 3/4SM -SN BR OVC007
     FM241800 36014G24KT 2SM -SN BR OVC015=

USA.gov is the U.S. government's official web portal to all federal, state and local government web resources and services.